createdAt,value
2018-07-03T12:42:03.454Z,1308.00
2018-07-03T12:43:03.430Z,1452.00
2018-07-03T12:44:57.075Z,1452.00
2018-07-03T12:45:57.026Z,1356.00
2018-07-03T12:47:50.375Z,11092.00
2018-07-03T12:48:50.325Z,316.00
2018-07-03T12:51:24.624Z,11308.00
2018-07-03T12:52:24.548Z,7296.00
2018-07-03T12:54:29.424Z,11112.00
2018-07-03T12:55:29.427Z,11184.00
2018-07-03T12:57:22.276Z,11196.00
2018-07-03T12:58:22.257Z,6392.00
2018-07-03T13:00:15.426Z,2900.00
2018-07-03T13:01:15.406Z,6944.00
2018-07-03T13:06:07.297Z,5204.00
2018-07-03T13:07:07.259Z,6356.00
2018-07-03T13:09:00.209Z,2652.00
2018-07-03T13:10:00.072Z,6264.00
2018-07-03T13:11:52.960Z,4664.00
2018-07-03T13:12:52.920Z,5056.00
2018-07-03T13:14:46.561Z,9912.00
2018-07-03T13:15:46.527Z,8572.00
2018-07-03T13:17:39.880Z,5600.00
2018-07-03T13:18:39.846Z,6420.00
2018-07-03T13:20:44.171Z,11776.00
2018-07-03T13:21:44.147Z,9136.00
2018-07-03T13:23:37.304Z,11808.00
2018-07-03T13:24:37.258Z,7432.00
2018-07-03T13:26:30.089Z,5960.00
2018-07-03T13:27:30.064Z,11352.00
2018-07-03T13:29:23.240Z,5852.00
2018-07-03T13:30:23.188Z,11460.00
2018-07-03T13:32:16.516Z,11348.00
2018-07-03T13:33:16.492Z,11396.00
2018-07-03T13:35:09.663Z,11396.00
2018-07-03T13:36:09.614Z,11432.00
2018-07-03T13:38:02.960Z,11664.00
2018-07-03T13:39:02.920Z,11596.00
2018-07-03T13:40:55.779Z,11444.00
2018-07-03T13:41:55.759Z,11376.00
2018-07-03T13:43:48.890Z,11308.00
2018-07-03T13:44:48.847Z,11336.00
2018-07-03T13:46:42.230Z,11752.00
2018-07-03T13:47:42.183Z,11848.00
2018-07-03T13:49:35.288Z,11692.00
2018-07-03T13:50:35.268Z,10760.00
2018-07-03T13:52:28.429Z,11924.00
2018-07-03T13:53:28.518Z,11452.00
2018-07-03T13:55:21.684Z,12488.00
2018-07-03T13:56:21.617Z,12576.00
2018-07-03T13:57:21.642Z,6820.00
2018-07-03T13:58:24.471Z,6296.00
2018-07-03T13:59:21.479Z,11988.00
2018-07-03T14:00:21.481Z,8016.00
2018-07-03T14:01:21.452Z,9588.00
2018-07-03T14:02:21.499Z,11428.00
2018-07-03T14:03:21.423Z,6448.00
2018-07-03T14:04:21.407Z,6340.00
2018-07-03T14:05:21.393Z,6180.00
2018-07-03T14:06:21.382Z,6048.00
2018-07-03T14:07:21.362Z,6068.00
2018-07-03T14:08:23.318Z,6268.00
2018-07-03T14:09:21.364Z,6960.00
2018-07-03T14:10:22.438Z,9088.00
2018-07-03T14:11:21.368Z,6088.00
2018-07-03T14:12:21.390Z,5952.00
2018-07-03T14:13:21.324Z,5952.00
2018-07-03T14:14:21.299Z,6024.00
2018-07-03T14:15:21.305Z,6784.00
2018-07-03T14:16:21.331Z,5960.00
2018-07-03T14:17:21.243Z,5980.00
2018-07-03T14:18:21.313Z,5928.00
2018-07-03T14:19:21.231Z,5796.00
2018-07-03T14:20:22.869Z,5864.00
2018-07-03T14:21:21.174Z,9192.00
2018-07-03T14:22:21.185Z,9248.00
2018-07-03T14:23:21.133Z,7872.00
2018-07-03T14:24:21.161Z,11420.00
2018-07-03T14:25:21.116Z,10904.00
2018-07-03T14:26:21.105Z,11556.00
2018-07-03T14:27:21.102Z,11708.00
2018-07-03T14:28:21.114Z,11736.00
2018-07-03T14:29:21.068Z,11736.00
2018-07-03T14:30:21.028Z,11852.00
2018-07-03T14:31:21.813Z,11860.00
2018-07-03T14:32:21.047Z,11944.00
2018-07-03T14:33:21.034Z,11956.00
2018-07-03T14:34:23.869Z,11968.00
2018-07-03T14:35:22.855Z,11968.00
2018-07-03T14:36:21.039Z,11920.00
2018-07-03T14:37:20.930Z,11924.00
2018-07-03T14:38:20.894Z,11708.00
2018-07-03T14:39:20.915Z,7088.00
2018-07-03T14:40:20.917Z,6504.00
2018-07-03T14:41:20.865Z,9548.00
2018-07-03T14:42:20.872Z,6428.00
2018-07-03T14:43:20.805Z,6316.00
2018-07-03T14:44:20.813Z,7796.00
2018-07-03T14:45:20.829Z,10524.00
2018-07-03T14:46:20.784Z,10628.00
2018-07-03T14:47:20.775Z,10648.00
2018-07-03T14:48:20.757Z,10312.00
2018-07-03T14:49:20.803Z,6284.00
2018-07-03T14:50:20.776Z,6084.00
2018-07-03T14:51:20.740Z,6236.00
2018-07-03T14:52:21.340Z,7708.00
2018-07-03T14:53:20.656Z,9536.00
2018-07-03T14:54:20.638Z,6580.00
2018-07-03T14:55:20.670Z,6276.00
2018-07-03T14:56:20.621Z,6316.00
2018-07-03T14:57:20.606Z,6396.00
2018-07-03T14:58:20.596Z,6556.00
2018-07-03T14:59:20.565Z,6652.00
2018-07-03T15:00:22.388Z,6680.00
2018-07-03T15:01:20.512Z,6676.00
2018-07-03T15:02:20.650Z,6748.00
2018-07-03T15:03:20.543Z,6792.00
2018-07-03T15:04:20.516Z,10264.00
2018-07-03T15:05:20.487Z,9628.00
2018-07-03T15:06:20.549Z,10724.00
2018-07-03T15:07:20.466Z,10620.00
2018-07-03T15:08:20.489Z,10412.00
2018-07-03T15:09:20.418Z,8652.00
2018-07-03T15:10:20.373Z,8088.00
2018-07-03T15:11:20.349Z,7968.00
2018-07-03T15:12:21.346Z,9764.00
2018-07-03T15:13:20.395Z,9808.00
2018-07-03T15:14:20.550Z,10212.00
2018-07-03T15:15:21.111Z,10448.00
2018-07-03T15:16:20.398Z,10580.00
2018-07-03T15:17:20.462Z,10572.00
2018-07-03T15:18:20.573Z,10308.00
2018-07-03T15:19:20.602Z,10432.00
2018-07-03T15:20:20.539Z,10200.00
2018-07-03T15:21:20.479Z,10068.00
2018-07-03T15:22:20.947Z,9908.00
2018-07-03T15:23:20.461Z,9848.00
2018-07-03T15:24:20.322Z,9884.00
2018-07-03T15:25:20.265Z,9804.00
2018-07-03T15:26:20.224Z,9768.00
2018-07-03T15:27:20.111Z,9768.00
2018-07-03T15:28:21.240Z,9560.00
2018-07-03T15:29:20.215Z,9384.00
2018-07-03T15:30:20.343Z,9156.00
2018-07-03T15:31:20.926Z,9008.00
2018-07-03T15:32:21.025Z,8760.00
2018-07-03T15:33:22.039Z,8116.00
2018-07-03T15:34:20.237Z,7352.00
2018-07-03T15:35:19.969Z,5180.00
2018-07-03T15:36:19.950Z,4956.00
2018-07-03T15:37:19.949Z,4844.00
2018-07-03T15:38:19.930Z,5908.00
2018-07-03T15:39:19.905Z,7504.00
2018-07-03T15:40:21.835Z,7532.00
2018-07-03T15:41:19.877Z,7580.00
2018-07-03T15:42:19.864Z,7512.00
2018-07-03T15:43:19.876Z,7360.00
2018-07-03T15:44:19.834Z,4980.00
2018-07-03T15:45:19.807Z,6912.00
2018-07-03T15:46:19.786Z,7204.00
2018-07-03T15:47:20.348Z,7212.00
2018-07-03T15:48:19.748Z,7240.00
2018-07-03T15:49:19.753Z,7064.00
2018-07-03T15:50:19.714Z,7220.00
2018-07-03T15:51:19.706Z,7188.00
2018-07-03T15:52:19.690Z,7124.00
2018-07-03T15:53:19.673Z,6520.00
2018-07-03T15:54:19.649Z,6860.00
2018-07-03T15:55:19.648Z,5896.00
2018-07-03T15:56:19.680Z,6940.00
2018-07-03T15:57:19.606Z,6808.00
2018-07-03T15:58:19.588Z,6876.00
2018-07-03T15:59:19.569Z,6808.00
2018-07-03T16:00:19.551Z,6740.00
2018-07-03T16:01:26.961Z,6644.00
2018-07-03T16:03:13.197Z,6472.00
2018-07-03T16:04:15.157Z,6408.00
2018-07-03T16:05:13.001Z,6340.00
2018-07-03T16:06:15.538Z,6284.00
2018-07-03T16:07:13.003Z,6240.00
2018-07-03T16:08:12.983Z,6204.00
2018-07-03T16:09:12.973Z,6156.00
2018-07-03T16:10:13.008Z,6120.00
2018-07-03T16:11:12.922Z,6076.00
2018-07-03T16:12:12.919Z,6040.00
2018-07-03T16:13:12.836Z,6024.00
2018-07-03T16:14:12.871Z,5996.00
2018-07-03T16:15:13.596Z,5940.00
2018-07-03T16:16:12.896Z,5940.00
2018-07-03T16:17:12.795Z,5920.00
2018-07-03T16:18:12.717Z,5896.00
2018-07-03T16:19:12.865Z,5872.00
2018-07-03T16:20:14.627Z,5856.00
2018-07-03T16:21:12.814Z,5844.00
2018-07-03T16:22:12.861Z,5848.00
2018-07-03T16:23:12.728Z,5948.00
2018-07-03T16:24:14.498Z,6052.00
2018-07-03T16:25:12.768Z,6104.00
2018-07-03T16:26:14.655Z,6492.00
2018-07-03T16:27:12.658Z,7040.00
2018-07-03T16:28:13.594Z,7216.00
2018-07-03T16:29:12.682Z,7316.00
2018-07-03T16:30:13.601Z,7472.00
2018-07-03T16:31:12.669Z,7684.00
2018-07-03T16:32:13.194Z,7828.00
2018-07-03T16:33:12.626Z,7872.00
2018-07-03T16:34:12.640Z,7852.00
2018-07-03T16:35:12.567Z,7876.00
2018-07-03T16:36:12.479Z,7880.00
2018-07-03T16:37:12.471Z,7876.00
2018-07-03T16:38:12.407Z,7872.00
2018-07-03T16:39:12.410Z,7864.00
2018-07-03T16:40:12.410Z,7860.00
2018-07-03T16:41:12.438Z,7864.00
2018-07-03T16:42:12.608Z,7864.00
2018-07-03T16:43:14.314Z,7856.00
2018-07-03T16:44:12.307Z,7836.00
2018-07-03T16:45:12.357Z,7848.00
2018-07-03T16:46:12.547Z,7840.00
2018-07-03T16:47:12.331Z,7836.00
2018-07-03T16:48:12.483Z,7836.00
2018-07-03T16:49:12.236Z,7808.00
2018-07-03T16:50:12.313Z,7764.00
2018-07-03T16:51:12.182Z,7776.00
2018-07-03T16:52:12.292Z,7780.00
2018-07-03T16:53:12.216Z,7792.00
2018-07-03T16:54:12.200Z,7712.00
2018-07-03T16:55:12.108Z,7816.00
2018-07-03T16:56:12.185Z,7792.00
2018-07-03T16:57:12.093Z,7756.00
2018-07-03T16:58:12.136Z,7744.00
2018-07-03T16:59:12.061Z,7780.00
2018-07-03T17:00:12.286Z,7748.00
2018-07-03T17:01:12.085Z,7752.00
2018-07-03T17:02:12.124Z,7688.00
2018-07-03T17:03:13.055Z,7656.00
2018-07-03T17:04:12.124Z,7624.00
2018-07-03T17:05:12.604Z,7600.00
2018-07-03T17:06:11.995Z,7608.00
2018-07-03T17:07:12.003Z,7604.00
2018-07-03T17:08:11.914Z,7576.00
2018-07-03T17:09:11.978Z,7584.00
2018-07-03T17:10:11.931Z,7588.00
2018-07-03T17:11:11.916Z,7596.00
2018-07-03T17:12:11.886Z,7632.00
2018-07-03T17:13:11.856Z,7628.00
2018-07-03T17:14:13.489Z,7620.00
2018-07-03T17:15:11.842Z,7640.00
2018-07-03T17:16:11.824Z,7660.00
2018-07-03T17:17:11.817Z,7696.00
2018-07-03T17:18:11.793Z,7728.00
2018-07-03T17:19:12.495Z,7724.00
2018-07-03T17:20:11.759Z,7712.00
2018-07-03T17:21:11.784Z,7704.00
2018-07-03T17:22:11.740Z,7696.00
2018-07-03T17:23:11.789Z,7820.00
2018-07-03T17:24:12.532Z,7908.00
2018-07-03T17:25:13.521Z,7948.00
2018-07-03T17:26:13.560Z,7948.00
2018-07-03T17:27:13.541Z,7920.00
2018-07-03T17:28:11.747Z,7868.00
2018-07-03T17:29:11.620Z,7844.00
2018-07-03T17:30:13.619Z,7912.00
2018-07-03T17:31:12.876Z,7916.00
2018-07-03T17:32:11.827Z,7924.00
2018-07-03T17:33:11.726Z,7884.00
2018-07-03T17:34:12.684Z,7864.00
2018-07-03T17:35:13.741Z,7848.00
2018-07-03T17:36:12.612Z,7796.00
2018-07-03T17:37:13.607Z,7768.00
2018-07-03T17:38:11.679Z,7780.00
2018-07-03T17:39:18.648Z,7744.00
2018-07-03T17:40:11.677Z,7728.00
2018-07-03T17:41:13.255Z,7696.00
2018-07-03T17:42:11.673Z,7680.00
2018-07-03T17:43:11.497Z,7680.00
2018-07-03T17:44:11.575Z,7708.00
2018-07-03T17:45:11.409Z,7776.00
2018-07-03T17:46:12.345Z,7852.00
2018-07-03T17:47:11.580Z,7864.00
2018-07-03T17:48:11.590Z,7796.00
2018-07-03T17:49:12.264Z,7828.00
2018-07-03T17:50:11.513Z,7992.00
2018-07-03T17:51:11.532Z,8204.00
2018-07-03T17:52:12.135Z,8304.00
2018-07-03T17:53:11.515Z,8408.00
2018-07-03T17:54:12.202Z,8340.00
2018-07-03T17:55:11.417Z,8208.00
2018-07-03T17:56:11.693Z,8104.00
2018-07-03T17:57:11.362Z,8028.00
2018-07-03T17:58:11.280Z,8172.00
2018-07-03T17:59:11.543Z,8412.00
2018-07-03T18:00:11.353Z,8412.00
2018-07-03T18:01:13.313Z,8328.00
2018-07-03T18:02:11.645Z,8344.00
2018-07-03T18:03:11.259Z,8320.00
2018-07-03T18:04:11.306Z,8256.00
2018-07-03T18:05:11.317Z,8048.00
2018-07-03T18:06:11.296Z,7976.00
2018-07-03T18:07:11.236Z,7912.00
2018-07-03T18:08:11.314Z,7840.00
2018-07-03T18:09:12.170Z,7648.00
2018-07-03T18:10:11.262Z,7484.00
2018-07-03T18:11:11.250Z,7416.00
2018-07-03T18:12:11.194Z,7360.00
2018-07-03T18:13:11.151Z,7256.00
2018-07-03T18:14:11.101Z,7144.00
2018-07-03T18:15:11.161Z,7044.00
2018-07-03T18:16:11.168Z,6968.00
2018-07-03T18:17:12.592Z,6836.00
2018-07-03T18:18:11.112Z,6748.00
2018-07-03T18:19:11.612Z,6732.00
2018-07-03T18:20:11.185Z,6692.00
2018-07-03T18:21:11.004Z,6564.00
2018-07-03T18:22:10.988Z,6500.00
2018-07-03T18:23:11.146Z,6472.00
2018-07-03T18:24:11.151Z,6484.00
2018-07-03T18:25:13.797Z,6436.00
2018-07-03T18:26:10.943Z,6340.00
2018-07-03T18:27:11.025Z,6248.00
2018-07-03T18:28:10.997Z,6136.00
2018-07-03T18:29:11.034Z,6052.00
2018-07-03T18:30:10.948Z,5984.00
2018-07-03T18:31:10.976Z,5936.00
2018-07-03T18:32:11.061Z,5896.00
2018-07-03T18:33:11.731Z,5828.00
2018-07-03T18:34:10.893Z,5756.00
2018-07-03T18:35:11.919Z,5720.00
2018-07-03T18:36:11.019Z,5696.00
2018-07-03T18:37:11.047Z,5628.00
2018-07-03T18:38:10.860Z,5548.00
2018-07-03T18:39:10.847Z,5484.00
2018-07-03T18:40:10.803Z,5408.00
2018-07-03T18:41:10.835Z,5304.00
2018-07-03T18:42:10.890Z,5196.00
2018-07-03T18:43:11.760Z,5096.00
2018-07-03T18:44:10.911Z,5004.00
2018-07-03T18:45:12.978Z,4916.00
2018-07-03T18:46:10.780Z,4852.00
2018-07-03T18:47:11.657Z,4788.00
2018-07-03T18:48:10.757Z,4688.00
2018-07-03T18:49:11.697Z,4524.00
2018-07-03T18:50:10.596Z,4368.00
2018-07-03T18:51:10.692Z,4284.00
2018-07-03T18:52:10.592Z,4296.00
2018-07-03T18:53:10.787Z,4208.00
2018-07-03T18:54:11.195Z,4100.00
2018-07-03T18:55:10.658Z,3972.00
2018-07-03T18:56:11.313Z,3832.00
2018-07-03T18:57:10.652Z,3748.00
2018-07-03T18:58:10.493Z,3668.00
2018-07-03T18:59:10.607Z,3588.00
2018-07-03T19:00:10.621Z,3312.00
2018-07-03T19:01:10.760Z,2484.00
2018-07-03T19:02:10.547Z,1768.00
2018-07-03T19:03:11.154Z,1704.00
2018-07-03T19:04:10.625Z,1656.00
2018-07-03T19:05:10.424Z,1844.00
2018-07-03T19:06:13.396Z,1908.00
2018-07-03T19:07:10.534Z,1628.00
2018-07-03T19:08:10.666Z,1476.00
2018-07-03T19:09:10.552Z,1432.00
2018-07-03T19:10:10.422Z,1388.00
2018-07-03T19:11:10.462Z,1344.00
2018-07-03T19:12:12.242Z,1300.00
2018-07-03T19:13:10.337Z,1260.00
2018-07-03T19:14:10.274Z,1216.00
2018-07-03T19:15:10.383Z,1176.00
2018-07-03T19:16:10.290Z,1132.00
2018-07-03T19:17:10.244Z,1092.00
2018-07-03T19:18:11.108Z,1048.00
2018-07-03T19:19:10.243Z,1004.00
2018-07-03T19:20:10.116Z,964.00
2018-07-03T19:21:10.254Z,924.00
2018-07-03T19:22:10.108Z,884.00
2018-07-03T19:23:11.768Z,844.00
2018-07-03T19:24:10.198Z,804.00
2018-07-03T19:25:10.249Z,768.00
2018-07-03T19:26:10.101Z,732.00
2018-07-03T19:27:10.071Z,696.00
2018-07-03T19:28:10.049Z,660.00
2018-07-03T19:29:10.072Z,620.00
2018-07-03T19:30:10.087Z,588.00
2018-07-03T19:31:10.091Z,552.00
2018-07-03T19:32:10.138Z,528.00
2018-07-03T19:33:11.771Z,504.00
2018-07-03T19:34:09.936Z,476.00
2018-07-03T19:35:09.981Z,448.00
2018-07-03T19:36:11.715Z,424.00
2018-07-03T19:37:09.991Z,400.00
2018-07-03T19:38:10.799Z,380.00
2018-07-03T19:39:11.705Z,356.00
2018-07-03T19:40:09.852Z,340.00
2018-07-03T19:41:09.865Z,316.00
2018-07-03T19:42:09.798Z,300.00
2018-07-03T19:43:09.743Z,280.00
2018-07-03T19:44:09.728Z,264.00
2018-07-03T19:45:09.818Z,248.00
2018-07-03T19:46:11.722Z,232.00
2018-07-03T19:47:09.739Z,212.00
2018-07-03T19:48:09.727Z,196.00
2018-07-03T19:49:09.651Z,184.00
2018-07-03T19:50:09.892Z,172.00
2018-07-03T19:51:09.974Z,160.00
2018-07-03T19:52:10.328Z,148.00
2018-07-03T19:53:10.085Z,140.00
2018-07-03T19:54:11.232Z,128.00
2018-07-03T19:55:09.554Z,116.00
2018-07-03T19:56:09.707Z,112.00
2018-07-03T19:57:09.493Z,104.00
2018-07-03T19:58:09.644Z,92.00
2018-07-03T19:59:11.293Z,84.00
2018-07-03T20:00:09.482Z,76.00
2018-07-03T20:01:09.375Z,72.00
2018-07-03T20:02:11.395Z,68.00
2018-07-03T20:03:11.214Z,56.00
2018-07-03T20:04:09.462Z,52.00
2018-07-03T20:05:11.330Z,52.00
2018-07-03T20:06:09.417Z,44.00
2018-07-03T20:07:09.416Z,40.00
2018-07-03T20:08:10.374Z,40.00
2018-07-03T20:09:10.288Z,32.00
2018-07-03T20:10:09.215Z,32.00
2018-07-03T20:11:10.974Z,28.00
2018-07-03T20:12:10.071Z,24.00
2018-07-03T20:13:09.114Z,20.00
2018-07-03T20:14:09.252Z,20.00
2018-07-03T20:15:09.183Z,20.00
2018-07-03T20:16:09.136Z,16.00
2018-07-03T20:17:09.939Z,16.00
2018-07-03T20:18:11.048Z,12.00
2018-07-03T20:19:09.351Z,12.00
2018-07-03T20:20:09.114Z,8.00
2018-07-03T20:21:08.983Z,12.00
2018-07-03T20:22:09.066Z,12.00
2018-07-03T20:23:09.071Z,8.00
2018-07-03T20:24:09.165Z,8.00
2018-07-03T20:25:08.998Z,8.00
2018-07-03T20:26:08.959Z,4.00
2018-07-03T20:27:08.939Z,4.00
2018-07-03T20:28:09.154Z,8.00
2018-07-03T20:29:10.324Z,4.00
2018-07-03T20:30:08.955Z,4.00
2018-07-03T20:31:08.971Z,4.00
2018-07-03T20:32:08.885Z,4.00
2018-07-03T20:33:08.852Z,0.00
2018-07-03T20:34:08.767Z,4.00
2018-07-03T20:35:08.713Z,4.00
2018-07-03T20:36:08.796Z,4.00
2018-07-03T20:37:08.724Z,0.00
2018-07-03T20:38:11.374Z,0.00
2018-07-03T20:39:08.982Z,0.00
2018-07-03T20:40:08.716Z,4.00
2018-07-03T20:41:08.628Z,4.00
2018-07-03T20:42:09.527Z,4.00
2018-07-03T20:43:08.744Z,0.00
2018-07-03T20:44:09.313Z,0.00
2018-07-03T20:45:08.623Z,0.00
2018-07-03T20:46:08.614Z,0.00
2018-07-03T20:47:08.475Z,0.00
2018-07-03T20:48:08.521Z,0.00
2018-07-03T20:49:08.361Z,0.00
2018-07-03T20:50:08.428Z,0.00
2018-07-03T20:51:08.280Z,0.00
2018-07-03T20:52:08.465Z,0.00
2018-07-03T20:53:12.832Z,0.00
2018-07-03T20:54:08.309Z,0.00
2018-07-03T20:55:08.377Z,0.00
2018-07-03T20:56:08.183Z,0.00
2018-07-03T20:57:08.340Z,0.00
2018-07-03T20:58:08.334Z,0.00
2018-07-03T20:59:08.205Z,0.00
2018-07-03T21:00:08.189Z,0.00
2018-07-03T21:01:13.059Z,0.00
2018-07-03T21:02:08.143Z,0.00
2018-07-03T21:03:08.870Z,0.00
2018-07-03T21:04:09.929Z,0.00
2018-07-03T21:05:07.906Z,0.00
2018-07-03T21:06:08.043Z,0.00
2018-07-03T21:07:09.819Z,0.00
2018-07-03T21:08:08.858Z,0.00
2018-07-03T21:09:08.046Z,0.00
2018-07-03T21:10:07.933Z,0.00
2018-07-03T21:11:07.844Z,0.00
2018-07-03T21:12:10.608Z,0.00
2018-07-03T21:13:07.752Z,0.00
2018-07-03T21:14:12.412Z,0.00
2018-07-03T21:15:09.504Z,0.00
2018-07-03T21:16:07.876Z,0.00
2018-07-03T21:17:07.758Z,0.00
2018-07-03T21:18:07.685Z,0.00
2018-07-03T21:19:08.367Z,0.00
2018-07-03T21:20:08.491Z,0.00
2018-07-03T21:21:07.883Z,0.00
2018-07-03T21:22:07.632Z,0.00
2018-07-03T21:23:07.576Z,0.00
2018-07-03T21:24:09.547Z,0.00
2018-07-03T21:25:08.953Z,0.00
2018-07-03T21:26:07.628Z,0.00
2018-07-03T21:27:07.571Z,0.00
2018-07-03T21:28:07.451Z,0.00
2018-07-03T21:29:07.480Z,0.00
2018-07-03T21:30:07.430Z,0.00
2018-07-03T21:31:07.391Z,0.00
2018-07-03T21:32:07.535Z,0.00
2018-07-03T21:33:07.415Z,0.00
2018-07-03T21:34:07.324Z,0.00
2018-07-03T21:35:08.955Z,0.00
2018-07-03T21:36:08.990Z,0.00
2018-07-03T21:37:07.957Z,0.00
2018-07-03T21:38:07.338Z,0.00
2018-07-03T21:39:07.372Z,0.00
2018-07-03T21:40:07.396Z,0.00
2018-07-03T21:41:07.292Z,0.00
2018-07-03T21:42:08.918Z,0.00
2018-07-03T21:43:10.276Z,0.00
2018-07-03T21:44:07.214Z,0.00
2018-07-03T21:45:09.001Z,0.00
2018-07-03T21:46:07.136Z,0.00
2018-07-03T21:47:07.480Z,0.00
2018-07-03T21:48:06.855Z,0.00
2018-07-03T21:49:07.011Z,0.00
2018-07-03T21:50:11.973Z,0.00
2018-07-03T21:51:07.542Z,0.00
2018-07-03T21:52:06.924Z,0.00
2018-07-03T21:53:07.040Z,0.00
2018-07-03T21:54:06.756Z,0.00
2018-07-03T21:55:10.509Z,0.00
2018-07-03T21:56:06.906Z,0.00
2018-07-03T21:57:06.796Z,0.00
2018-07-03T21:58:06.719Z,0.00
2018-07-03T21:59:07.537Z,0.00
2018-07-03T22:00:06.777Z,0.00
2018-07-03T22:01:07.990Z,0.00
2018-07-03T22:02:07.519Z,0.00
2018-07-03T22:03:06.717Z,0.00
2018-07-03T22:04:06.712Z,0.00
2018-07-03T22:05:08.917Z,0.00
2018-07-03T22:06:06.942Z,0.00
2018-07-03T22:07:06.497Z,0.00
2018-07-03T22:08:06.565Z,0.00
2018-07-03T22:09:06.546Z,0.00
2018-07-03T22:10:09.542Z,0.00
2018-07-03T22:11:06.490Z,0.00
2018-07-03T22:12:06.463Z,0.00
2018-07-03T22:13:08.511Z,0.00
2018-07-03T22:14:06.481Z,0.00
2018-07-03T22:15:06.417Z,0.00
2018-07-03T22:16:06.406Z,0.00
2018-07-03T22:17:07.969Z,0.00
2018-07-03T22:18:06.813Z,0.00
2018-07-03T22:19:06.302Z,0.00
2018-07-03T22:20:08.985Z,0.00
2018-07-03T22:21:06.254Z,0.00
2018-07-03T22:22:06.246Z,0.00
2018-07-03T22:23:07.874Z,0.00
2018-07-03T22:24:06.010Z,0.00
2018-07-03T22:25:08.942Z,0.00
2018-07-03T22:26:06.107Z,0.00
2018-07-03T22:27:06.058Z,0.00
2018-07-03T22:28:06.026Z,0.00
2018-07-03T22:29:06.002Z,0.00
2018-07-03T22:30:05.941Z,0.00
2018-07-03T22:31:07.513Z,0.00
2018-07-03T22:32:06.467Z,0.00
2018-07-03T22:33:05.893Z,0.00
2018-07-03T22:34:05.852Z,0.00
2018-07-03T22:35:05.882Z,0.00
2018-07-03T22:36:05.852Z,0.00
2018-07-03T22:37:05.792Z,0.00
2018-07-03T22:38:06.462Z,0.00
2018-07-03T22:39:06.399Z,0.00
2018-07-03T22:40:06.505Z,0.00
2018-07-03T22:41:05.737Z,0.00
2018-07-03T22:42:17.371Z,0.00
2018-07-03T22:43:06.141Z,0.00
2018-07-03T22:44:08.982Z,0.00
2018-07-03T22:45:05.517Z,0.00
2018-07-03T22:46:05.572Z,0.00
2018-07-03T22:47:28.527Z,0.00
2018-07-03T22:48:05.539Z,0.00
2018-07-03T22:49:05.572Z,0.00
2018-07-03T22:50:05.485Z,0.00
2018-07-03T22:51:06.051Z,0.00
2018-07-03T22:52:06.955Z,0.00
2018-07-03T22:53:09.968Z,0.00
2018-07-03T22:54:06.014Z,0.00
2018-07-03T22:55:07.961Z,0.00
2018-07-03T22:56:05.342Z,0.00
2018-07-03T22:57:05.432Z,0.00
2018-07-03T22:58:06.988Z,0.00
2018-07-03T22:59:08.018Z,0.00
2018-07-03T23:00:05.188Z,0.00
2018-07-03T23:01:06.058Z,0.00
2018-07-03T23:02:05.174Z,0.00
2018-07-03T23:03:06.028Z,0.00
2018-07-03T23:04:05.086Z,0.00
2018-07-03T23:05:05.100Z,0.00
2018-07-03T23:06:09.954Z,0.00
2018-07-03T23:07:05.966Z,0.00
2018-07-03T23:08:08.051Z,0.00
2018-07-03T23:09:05.488Z,0.00
2018-07-03T23:10:04.995Z,0.00
2018-07-03T23:11:05.940Z,0.00
2018-07-03T23:12:04.901Z,0.00
2018-07-03T23:13:04.956Z,0.00
2018-07-03T23:14:06.454Z,0.00
2018-07-03T23:15:04.819Z,0.00
2018-07-03T23:16:05.458Z,0.00
2018-07-03T23:17:04.797Z,0.00
2018-07-03T23:18:06.970Z,0.00
2018-07-03T23:19:05.789Z,0.00
2018-07-03T23:20:04.703Z,0.00
2018-07-03T23:21:04.644Z,0.00
2018-07-03T23:22:04.553Z,0.00
2018-07-03T23:23:05.534Z,0.00
2018-07-03T23:24:04.595Z,0.00
2018-07-03T23:25:04.643Z,0.00
2018-07-03T23:26:04.577Z,0.00
2018-07-03T23:27:04.534Z,0.00
2018-07-03T23:28:04.461Z,0.00
2018-07-03T23:29:05.040Z,0.00
2018-07-03T23:30:04.329Z,0.00
2018-07-03T23:31:04.427Z,0.00
2018-07-03T23:32:05.999Z,0.00
2018-07-03T23:33:05.969Z,0.00
2018-07-03T23:34:04.285Z,0.00
2018-07-03T23:35:05.205Z,0.00
2018-07-03T23:36:04.641Z,0.00
2018-07-03T23:37:04.236Z,0.00
2018-07-03T23:38:07.006Z,0.00
2018-07-03T23:39:04.231Z,0.00
2018-07-03T23:40:04.225Z,0.00
2018-07-03T23:41:04.438Z,0.00
2018-07-03T23:42:04.139Z,0.00
2018-07-03T23:43:04.186Z,0.00
2018-07-03T23:44:08.945Z,0.00
2018-07-03T23:45:04.032Z,0.00
2018-07-03T23:46:04.080Z,0.00
2018-07-03T23:47:05.581Z,0.00
2018-07-03T23:48:04.466Z,0.00
2018-07-03T23:49:03.956Z,0.00
2018-07-03T23:50:08.497Z,0.00
2018-07-03T23:51:03.916Z,0.00
2018-07-03T23:52:25.546Z,0.00
2018-07-03T23:53:04.362Z,0.00
2018-07-03T23:54:04.203Z,0.00
2018-07-03T23:55:06.453Z,0.00
2018-07-03T23:56:03.783Z,0.00
2018-07-03T23:57:06.504Z,0.00
2018-07-03T23:58:05.472Z,0.00
2018-07-03T23:59:03.693Z,0.00
